Bei Facebook empfehlenBei Twitter postenGoogle plusPinterest

Das Wetter im Erzgebirge am 05.07.2015

Wetter und Klima am 05.07.2015 Holzhau im Erzgebirge (630m ü.NN)
Letzte gemessene Temperatur und Uhrzeit der Messung23:45:00 Uhr19.40 °C
Temperatur (Maximum / Höchstwert) und Uhrzeit der Messung13:15:00 Uhr34.80 °C
Temperatur (Minimum / Tiefstwert) und Uhrzeit der Messung04:30:0018.20 °C
Errechneter Absolutwert der Temperaturschwankungen zwischen Tmin und Tmax des Tages16.60 K
Errechnete Tagesmitteltemperatur25.01042 °C
Gesamt - Niederschlag des Tages (in flüssiger Form)0.00 Liter / m²
Luftdruck (Maximum / Höchstwert) und Zeitpunkt der Messung01:30:00 Uhr1020.30 hPa
Luftdruck (Minimum / Tiefstwert) und Zeitpunkt der Messung23:45:00 Uhr1014.10 hPa
Errechneter Absolutwert der Luftdruckschwankungen des Tages6.20 hPa
Höchste gemessene Windgeschwindigkeit und Uhrzeit der Messung12:30:00 Uhr11.52 km/h
Errechnete Windhäufigkeit in Relation zu den Messwerten des Tages13.54167 %
Niedrigste Windkühle (Windchill) und Zeitpunkt der Messung04:30:00 Uhr18.20 °C
Taupunkt (Maximum / Höchstwert) und Uhrzeit der Messung12:30:00 Uhr19.50 °C
Taupunkt (Minimum / Tiefstwert) und Uhrzeit der Messung23:15:0013.70 °C
Anzahl der automatisch eingelesenen Messwerte 96

Detaillierte Wetter- und Klima- Messwerte für den 05.07.2015 in Holzhau im Erzgebirge (630m ü.NN)
ZeitTemperaturLuftdruckRel. LuftfeuchteWindWindrichtungWindchillTaupunktNiederschlag l/m²
23:45:0019.40 °C1014.10 hPa70.00 %13.80 °C 
23:30:0019.30 °C1014.20 hPa71.00 %13.90 °C 
23:15:0019.50 °C1014.60 hPa69.00 %13.70 °C 
23:00:0019.80 °C1014.80 hPa69.00 %14.00 °C 
22:45:0020.10 °C1014.80 hPa68.00 %14.00 °C 
22:30:0020.70 °C1014.60 hPa66.00 %3.24 km/hSO20.70 °C14.10 °C 
22:15:0021.20 °C1014.40 hPa66.00 %14.60 °C 
22:00:0021.40 °C1014.50 hPa65.00 %14.60 °C 
21:45:0021.90 °C1014.70 hPa63.00 %14.50 °C 
21:30:0022.20 °C1014.70 hPa63.00 %14.80 °C 
21:15:0022.40 °C1014.60 hPa63.00 %15.00 °C 
21:00:0022.90 °C1014.70 hPa63.00 %15.50 °C 
20:45:0024.10 °C1014.90 hPa59.00 %15.60 °C 
20:30:0025.30 °C1015.00 hPa56.00 %15.90 °C 
20:15:0026.20 °C1015.30 hPa53.00 %15.90 °C 
20:00:0027.40 °C1015.30 hPa48.00 %7.56 km/hWSW29.40 °C15.40 °C 
19:45:0028.70 °C1015.50 hPa46.00 %2.88 km/hWSW28.70 °C15.90 °C 
19:30:0029.00 °C1015.30 hPa46.00 %16.20 °C 
19:15:0029.20 °C1015.40 hPa45.00 %16.00 °C 
19:00:0028.80 °C1015.30 hPa49.00 %17.00 °C 
18:45:0026.60 °C1015.50 hPa53.00 %16.20 °C 
18:30:0025.40 °C1015.50 hPa57.00 %4.32 km/hOSO25.40 °C16.30 °C 
18:15:0025.10 °C1016.10 hPa56.00 %15.70 °C 
18:00:0024.60 °C1016.70 hPa59.00 %16.10 °C 
17:45:0024.40 °C1016.90 hPa64.00 %3.60 km/hSSW24.40 °C17.10 °C 
17:30:0024.60 °C1017.20 hPa62.00 %16.80 °C 
17:15:0024.90 °C1017.40 hPa62.00 %17.10 °C 
17:00:0025.50 °C1017.40 hPa60.00 %17.20 °C 
16:45:0025.90 °C1017.40 hPa56.00 %16.50 °C 
16:30:0026.30 °C1017.60 hPa55.00 %16.50 °C 
16:15:0026.40 °C1017.60 hPa57.00 %17.20 °C 
16:00:0026.40 °C1017.70 hPa59.00 %17.70 °C 
15:45:0026.80 °C1017.80 hPa59.00 %18.10 °C 
15:30:0027.40 °C1017.90 hPa56.00 %17.80 °C 
15:15:0028.70 °C1017.70 hPa55.00 %5.04 km/hSSW31.00 °C18.80 °C 
15:00:0029.40 °C1017.60 hPa51.00 %18.20 °C 
14:45:0030.50 °C1017.90 hPa47.00 %17.90 °C 
14:30:0031.90 °C1017.80 hPa46.00 %18.80 °C 
14:15:0031.40 °C1017.80 hPa47.00 %18.70 °C 
14:00:0030.90 °C1017.90 hPa45.00 %17.60 °C 
13:45:0031.40 °C1017.70 hPa46.00 %7.92 km/hSSO34.10 °C18.40 °C 
13:30:0032.30 °C1017.90 hPa43.00 %5.04 km/hSSW35.10 °C18.10 °C 
13:15:0034.80 °C1018.00 hPa40.00 %3.24 km/hSW34.80 °C19.20 °C 
13:00:0034.40 °C1017.90 hPa41.00 %19.20 °C 
12:45:0033.90 °C1018.10 hPa42.00 %19.20 °C 
12:30:0033.80 °C1018.20 hPa43.00 %11.52 km/hSO37.10 °C19.50 °C 
12:15:0033.90 °C1018.30 hPa41.00 %18.80 °C 
12:00:0033.40 °C1018.20 hPa43.00 %19.10 °C 
11:45:0032.30 °C1018.40 hPa44.00 %18.50 °C 
11:30:0032.20 °C1018.60 hPa44.00 %18.40 °C 
11:15:0032.90 °C1018.60 hPa42.00 %18.30 °C 
11:00:0032.60 °C1018.30 hPa43.00 %18.40 °C 
10:45:0032.20 °C1018.60 hPa43.00 %18.00 °C 
10:30:0032.10 °C1018.50 hPa43.00 %4.68 km/hSSW32.10 °C17.90 °C 
10:15:0031.90 °C1018.40 hPa43.00 %17.80 °C 
10:00:0031.80 °C1018.60 hPa44.00 %18.00 °C 
09:45:0031.40 °C1018.40 hPa46.00 %18.40 °C 
09:30:0030.80 °C1018.40 hPa48.00 %18.50 °C 
09:15:0029.80 °C1018.50 hPa50.00 %18.30 °C 
09:00:0029.20 °C1018.60 hPa51.00 %18.00 °C 
08:45:0028.50 °C1018.70 hPa57.00 %19.20 °C 
08:30:0028.60 °C1018.70 hPa57.00 %19.20 °C 
08:15:0028.20 °C1018.80 hPa59.00 %19.40 °C 
08:00:0027.60 °C1018.80 hPa60.00 %19.10 °C 
07:45:0025.60 °C1019.10 hPa63.00 %18.00 °C 
07:30:0023.60 °C1019.10 hPa67.00 %17.10 °C 
07:15:0021.40 °C1019.20 hPa73.00 %16.40 °C 
07:00:0019.90 °C1019.50 hPa74.00 %15.10 °C 
06:45:0019.30 °C1019.40 hPa75.00 %14.80 °C 
06:30:0018.90 °C1019.50 hPa75.00 %14.40 °C 
06:15:0018.90 °C1019.50 hPa75.00 %14.40 °C 
06:00:0019.10 °C1019.40 hPa74.00 %14.40 °C 
05:45:0019.20 °C1019.10 hPa73.00 %14.20 °C 
05:30:0019.10 °C1019.20 hPa74.00 %14.40 °C 
05:15:0018.70 °C1019.50 hPa75.00 %4.32 km/hO18.70 °C14.20 °C 
05:00:0018.40 °C1019.60 hPa75.00 %13.90 °C 
04:45:0018.60 °C1019.60 hPa74.00 %13.90 °C 
04:30:0018.20 °C1019.60 hPa76.00 %13.90 °C 
04:15:0018.30 °C1019.70 hPa75.00 %13.80 °C 
04:00:0018.30 °C1019.80 hPa75.00 %13.80 °C 
03:45:0018.50 °C1019.80 hPa74.00 %13.80 °C 
03:30:0018.90 °C1019.80 hPa73.00 %14.00 °C 
03:15:0019.30 °C1019.70 hPa72.00 %14.10 °C 
03:00:0019.50 °C1019.80 hPa71.00 %14.10 °C 
02:45:0019.40 °C1019.60 hPa71.00 %14.00 °C 
02:30:0019.60 °C1019.60 hPa70.00 %14.00 °C 
02:15:0019.60 °C1019.70 hPa71.00 %14.20 °C 
02:00:0019.30 °C1020.10 hPa72.00 %5.04 km/hOSO20.30 °C14.10 °C 
01:45:0019.40 °C1020.20 hPa72.00 %14.20 °C 
01:30:0019.60 °C1020.30 hPa72.00 %14.40 °C 
01:15:0019.90 °C1020.20 hPa71.00 %14.50 °C 
01:00:0019.90 °C1020.20 hPa71.00 %14.50 °C 
00:45:0019.80 °C1020.10 hPa71.00 %14.40 °C 
00:30:0019.80 °C1019.90 hPa71.00 %14.40 °C 
00:15:0020.10 °C1020.00 hPa70.00 %14.50 °C 
00:00:0020.30 °C1020.10 hPa70.00 %14.70 °C 

Permanenter Link zu dieser Seite: Wetter im Erzgebirge am 05.07.2015
Performance-Info: Die Erstellung der Seite / Statistik(en) / Tabelle(n) erforderte 5 Datenbankserver-Abfrage(n) und dauerte 123 Millisekunden. (Dieser Messwert ist von der Gesamt-Auslastung des Servers abhängig.)
Erzgebirge - Wetter | Erzgebirge - Wetter (Mobilgeräte) | Komplette Klimadatenbank